createdAt,value
2023-01-02T00:00:59.910Z,15.69
2023-01-02T00:03:26.666Z,15.70
2023-01-02T00:05:54.368Z,15.72
2023-01-02T00:08:20.952Z,15.74
2023-01-02T00:10:47.567Z,15.77
2023-01-02T00:13:14.409Z,15.79
2023-01-02T00:15:40.911Z,15.81
2023-01-02T00:18:07.433Z,15.80
2023-01-02T00:20:34.115Z,15.82
2023-01-02T00:23:00.791Z,15.81
2023-01-02T00:25:27.493Z,15.81
2023-01-02T00:27:55.636Z,15.82
2023-01-02T00:30:22.487Z,15.84
2023-01-02T00:32:49.038Z,15.87
2023-01-02T00:35:15.534Z,15.88
2023-01-02T00:37:42.026Z,15.89
2023-01-02T00:40:13.679Z,15.89
2023-01-02T00:42:41.408Z,15.88
2023-01-02T00:45:10.543Z,15.88
2023-01-02T00:47:37.259Z,15.89
2023-01-02T00:50:04.403Z,15.92
2023-01-02T00:52:31.055Z,15.94
2023-01-02T00:54:57.604Z,15.94
2023-01-02T00:57:24.174Z,15.97
2023-01-02T00:59:50.650Z,15.96
2023-01-02T01:02:17.326Z,15.97
2023-01-02T01:04:43.850Z,15.97
2023-01-02T01:07:10.402Z,15.98
2023-01-02T01:09:36.922Z,16.00
2023-01-02T01:12:05.107Z,16.00
2023-01-02T01:14:32.014Z,16.00
2023-01-02T01:16:58.906Z,16.01
2023-01-02T01:19:29.478Z,16.01
2023-01-02T01:21:55.940Z,16.03
2023-01-02T01:24:22.470Z,16.03
2023-01-02T01:26:48.965Z,16.05
2023-01-02T01:29:15.478Z,16.05
2023-01-02T01:31:41.991Z,16.07
2023-01-02T01:34:08.570Z,16.06
2023-01-02T01:36:36.576Z,16.08
2023-01-02T01:39:03.442Z,16.09
2023-01-02T01:41:30.017Z,16.10
2023-01-02T01:43:59.287Z,16.12
2023-01-02T01:46:30.569Z,16.15
2023-01-02T01:49:27.289Z,16.17
2023-01-02T01:52:08.210Z,16.21
2023-01-02T01:54:44.450Z,16.23
2023-01-02T01:57:37.083Z,16.24
2023-01-02T02:00:05.134Z,16.24
2023-01-02T02:02:33.551Z,16.25
2023-01-02T02:05:05.742Z,16.24
2023-01-02T02:07:35.472Z,16.25
2023-01-02T02:10:08.567Z,16.27
2023-01-02T02:12:35.374Z,16.28
2023-01-02T02:15:02.089Z,16.30
2023-01-02T02:17:43.844Z,16.31
2023-01-02T02:20:47.283Z,16.33
2023-01-02T02:23:33.039Z,16.36
2023-01-02T02:25:59.450Z,16.38
2023-01-02T02:28:50.118Z,16.39
2023-01-02T02:31:52.152Z,16.37
2023-01-02T02:34:27.292Z,16.37
2023-01-02T02:37:22.612Z,16.37
2023-01-02T02:40:08.407Z,16.38
2023-01-02T02:42:49.412Z,16.41
2023-01-02T02:45:25.966Z,16.42
2023-01-02T02:48:02.333Z,16.41
2023-01-02T02:50:56.583Z,16.38
2023-01-02T02:53:35.271Z,16.38
2023-01-02T02:56:06.264Z,16.38
2023-01-02T02:58:33.326Z,16.38
2023-01-02T03:01:11.985Z,16.38
2023-01-02T03:03:38.583Z,16.40
2023-01-02T03:06:18.646Z,16.40
2023-01-02T03:09:01.369Z,16.40
2023-01-02T03:11:55.110Z,16.40
2023-01-02T03:14:31.338Z,16.41
2023-01-02T03:17:04.105Z,16.39
2023-01-02T03:19:39.068Z,16.38
2023-01-02T03:22:11.660Z,16.38
2023-01-02T03:24:40.869Z,16.36
2023-01-02T03:27:12.715Z,16.35
2023-01-02T03:30:02.927Z,16.33
2023-01-02T03:32:33.668Z,16.34
2023-01-02T03:35:03.476Z,16.32
2023-01-02T03:37:34.483Z,16.30
2023-01-02T03:40:08.369Z,16.31
2023-01-02T03:42:40.475Z,16.31
2023-01-02T03:45:14.790Z,16.32
2023-01-02T03:47:55.918Z,16.32
2023-01-02T03:50:27.461Z,16.33
2023-01-02T03:52:54.072Z,16.35
2023-01-02T03:55:23.850Z,16.36
2023-01-02T03:57:57.619Z,16.36
2023-01-02T04:00:34.422Z,16.38
2023-01-02T04:03:15.808Z,16.39
2023-01-02T04:06:05.732Z,16.38
2023-01-02T04:08:38.941Z,16.38
2023-01-02T04:11:07.798Z,16.39
2023-01-02T04:13:48.848Z,16.39
2023-01-02T04:16:21.002Z,16.39
2023-01-02T04:19:10.626Z,16.40
2023-01-02T04:21:40.176Z,16.41
2023-01-02T04:24:14.004Z,16.40
2023-01-02T04:26:57.192Z,16.40
2023-01-02T04:29:24.109Z,16.40
2023-01-02T04:31:56.201Z,16.40
2023-01-02T04:34:25.507Z,16.41
2023-01-02T04:36:52.039Z,16.42
2023-01-02T04:39:21.673Z,16.41
2023-01-02T04:41:48.974Z,16.41
2023-01-02T04:44:15.437Z,16.38
2023-01-02T04:46:42.016Z,16.37
2023-01-02T04:49:09.879Z,16.36
2023-01-02T04:51:36.366Z,16.35
2023-01-02T04:54:02.890Z,16.35
2023-01-02T04:56:29.417Z,16.34
2023-01-02T04:58:55.882Z,16.35
2023-01-02T05:01:22.757Z,16.36
2023-01-02T05:03:52.634Z,16.34
2023-01-02T05:06:19.347Z,16.34
2023-01-02T05:08:45.901Z,16.33
2023-01-02T05:11:16.640Z,16.32
2023-01-02T05:13:43.234Z,16.33
2023-01-02T05:16:10.443Z,16.34
2023-01-02T05:18:37.525Z,16.34
2023-01-02T05:21:07.143Z,16.34
2023-01-02T05:23:49.471Z,16.35
2023-01-02T05:26:17.687Z,16.34
2023-01-02T05:28:44.953Z,16.34
2023-01-02T05:31:12.264Z,16.33
2023-01-02T05:33:39.254Z,16.33
2023-01-02T05:36:07.247Z,16.34
2023-01-02T05:38:35.056Z,16.36
2023-01-02T05:41:06.459Z,16.35
2023-01-02T05:43:35.230Z,16.35
2023-01-02T05:46:15.713Z,16.36
2023-01-02T05:48:44.490Z,16.35
2023-01-02T05:51:15.151Z,16.35
2023-01-02T05:53:41.872Z,16.36
2023-01-02T05:56:08.706Z,16.36
2023-01-02T05:58:37.369Z,16.36
2023-01-02T06:01:06.299Z,16.36
2023-01-02T06:03:33.228Z,16.35
2023-01-02T06:06:10.600Z,16.36
2023-01-02T06:08:38.202Z,16.38
2023-01-02T06:11:05.643Z,16.37
2023-01-02T06:13:33.919Z,16.37
2023-01-02T06:16:01.866Z,16.37
2023-01-02T06:18:30.339Z,16.37
2023-01-02T06:21:01.282Z,16.39
2023-01-02T06:23:28.258Z,16.39
2023-01-02T06:25:55.061Z,16.38
2023-01-02T06:28:22.058Z,16.38
2023-01-02T06:30:48.547Z,16.39
2023-01-02T06:33:15.118Z,16.38
2023-01-02T06:35:41.637Z,16.39
2023-01-02T06:38:08.310Z,16.38
2023-01-02T06:40:34.875Z,16.37
2023-01-02T06:43:02.340Z,16.37
2023-01-02T06:45:31.668Z,16.35
2023-01-02T06:47:58.465Z,16.35
2023-01-02T06:50:31.234Z,16.34
2023-01-02T06:53:01.059Z,16.32
2023-01-02T06:55:27.587Z,16.30
2023-01-02T06:57:54.229Z,16.27
2023-01-02T07:00:20.842Z,16.24
2023-01-02T07:02:47.548Z,16.17
2023-01-02T07:05:17.369Z,16.11
2023-01-02T07:07:46.746Z,16.03
2023-01-02T07:10:13.369Z,15.92
2023-01-02T07:12:39.887Z,15.81
2023-01-02T07:15:07.294Z,15.71
2023-01-02T07:17:34.302Z,15.63
2023-01-02T07:20:02.461Z,15.53
2023-01-02T07:22:29.407Z,15.43
2023-01-02T07:24:55.918Z,15.35
2023-01-02T07:27:22.453Z,15.30
2023-01-02T07:29:49.104Z,15.26
2023-01-02T07:32:15.669Z,15.23
2023-01-02T07:34:42.279Z,15.17
2023-01-02T07:37:08.847Z,15.13
2023-01-02T07:39:35.349Z,15.08
2023-01-02T07:42:01.859Z,15.04
2023-01-02T07:44:28.470Z,14.97
2023-01-02T07:46:55.010Z,14.91
2023-01-02T07:49:21.537Z,14.87
2023-01-02T07:51:48.045Z,14.86
2023-01-02T07:54:14.611Z,14.82
2023-01-02T07:56:41.128Z,14.78
2023-01-02T07:59:07.865Z,14.76
2023-01-02T08:01:34.518Z,14.71
2023-01-02T08:04:01.295Z,14.69
2023-01-02T08:06:27.907Z,14.67
2023-01-02T08:08:54.484Z,14.63
2023-01-02T08:11:22.705Z,14.63
2023-01-02T08:13:49.399Z,14.61
2023-01-02T08:16:20.395Z,14.57
2023-01-02T08:18:47.560Z,14.58
2023-01-02T08:21:14.504Z,14.59
2023-01-02T08:23:41.147Z,14.60
2023-01-02T08:26:10.209Z,14.60
2023-01-02T08:28:38.411Z,14.61
2023-01-02T08:31:23.252Z,14.59
2023-01-02T08:33:49.935Z,14.60
2023-01-02T08:36:18.602Z,14.59
2023-01-02T08:38:45.681Z,14.57
2023-01-02T08:41:12.218Z,14.56
2023-01-02T08:43:39.003Z,14.57
2023-01-02T08:46:08.609Z,14.55
2023-01-02T08:48:35.861Z,14.52
2023-01-02T08:51:04.085Z,14.49
2023-01-02T08:53:30.742Z,14.48
2023-01-02T08:56:20.353Z,14.49
2023-01-02T08:58:54.797Z,14.51
2023-01-02T09:01:22.276Z,14.51
2023-01-02T09:03:49.521Z,14.52
2023-01-02T09:06:21.523Z,14.52
2023-01-02T09:08:48.966Z,14.51
2023-01-02T09:11:18.954Z,14.49
2023-01-02T09:13:45.777Z,14.45
2023-01-02T09:16:12.716Z,14.47
2023-01-02T09:18:40.276Z,14.45
2023-01-02T09:21:07.776Z,14.43
2023-01-02T09:23:35.580Z,14.41
2023-01-02T09:26:05.091Z,14.40
2023-01-02T09:28:33.703Z,14.39
2023-01-02T09:31:08.584Z,14.37
2023-01-02T09:33:39.184Z,14.36
2023-01-02T09:36:08.282Z,14.36
2023-01-02T09:38:35.414Z,14.36
2023-01-02T09:41:11.020Z,14.33
2023-01-02T09:43:48.287Z,14.32
2023-01-02T09:46:33.012Z,14.32
2023-01-02T09:49:01.336Z,14.34
2023-01-02T09:51:28.384Z,14.33
2023-01-02T09:53:55.307Z,14.32
2023-01-02T09:56:33.390Z,14.34
2023-01-02T09:59:12.947Z,14.38
2023-01-02T10:01:58.061Z,14.41
2023-01-02T10:04:41.908Z,14.44
2023-01-02T10:07:18.178Z,14.46
2023-01-02T10:10:15.407Z,14.46
2023-01-02T10:13:04.611Z,14.48
2023-01-02T10:15:31.870Z,14.49
2023-01-02T10:18:04.316Z,14.49
2023-01-02T10:20:39.211Z,14.51
2023-01-02T10:23:28.044Z,14.52
2023-01-02T10:26:00.606Z,14.52
2023-01-02T10:28:51.747Z,14.49
2023-01-02T10:31:31.561Z,14.48
2023-01-02T10:34:00.326Z,14.45
2023-01-02T10:36:40.782Z,14.43
2023-01-02T10:39:12.042Z,14.40
2023-01-02T10:41:40.025Z,14.38
2023-01-02T10:44:27.982Z,14.40
2023-01-02T10:46:56.795Z,14.42
2023-01-02T10:49:25.535Z,14.44
2023-01-02T10:52:22.240Z,14.46
2023-01-02T10:54:56.673Z,14.49
2023-01-02T10:57:33.578Z,14.50
2023-01-02T11:00:01.389Z,14.50
2023-01-02T11:02:38.038Z,14.51
2023-01-02T11:05:17.943Z,14.49
2023-01-02T11:07:48.569Z,14.48
2023-01-02T11:10:33.734Z,14.47
2023-01-02T11:13:14.047Z,14.48
2023-01-02T11:16:04.288Z,14.48
2023-01-02T11:18:34.019Z,14.48
2023-01-02T11:21:06.037Z,14.49
2023-01-02T11:23:39.369Z,14.49
2023-01-02T11:26:23.949Z,14.49
2023-01-02T11:28:54.014Z,14.49
2023-01-02T11:31:22.371Z,14.50
2023-01-02T11:33:49.301Z,14.51
2023-01-02T11:36:18.639Z,14.50
2023-01-02T11:38:58.896Z,14.50
2023-01-02T11:42:11.346Z,14.50
2023-01-02T11:44:53.080Z,14.53
2023-01-02T11:47:32.017Z,14.53
2023-01-02T11:49:59.058Z,14.57
2023-01-02T11:52:38.478Z,14.57
2023-01-02T11:55:29.416Z,14.59
2023-01-02T11:58:08.086Z,14.61
2023-01-02T12:00:38.917Z,14.63
2023-01-02T12:03:34.939Z,14.62
2023-01-02T12:06:31.961Z,14.65
2023-01-02T12:09:25.938Z,14.66
2023-01-02T12:12:11.537Z,14.66
2023-01-02T12:14:46.879Z,14.66
2023-01-02T12:17:55.637Z,14.66
2023-01-02T12:20:41.534Z,14.67
2023-01-02T12:23:31.486Z,14.65
2023-01-02T12:26:20.375Z,14.64
2023-01-02T12:29:03.712Z,14.63
2023-01-02T12:31:43.772Z,14.62
2023-01-02T12:34:43.734Z,14.61
2023-01-02T12:37:20.197Z,14.61
2023-01-02T12:39:55.695Z,14.62
2023-01-02T12:42:28.196Z,14.61
2023-01-02T12:44:57.225Z,14.61
2023-01-02T12:47:39.717Z,14.63
2023-01-02T12:50:12.344Z,14.66
2023-01-02T12:53:08.323Z,14.67
2023-01-02T12:55:34.824Z,14.70
2023-01-02T12:58:11.580Z,14.71
2023-01-02T13:00:49.406Z,14.72
2023-01-02T13:03:40.450Z,14.72
2023-01-02T13:06:46.700Z,14.72
2023-01-02T13:09:19.953Z,14.73
2023-01-02T13:11:55.302Z,14.72
2023-01-02T13:14:27.553Z,14.66
2023-01-02T13:17:23.552Z,14.62
2023-01-02T13:19:59.030Z,14.60
2023-01-02T13:22:46.803Z,14.60
2023-01-02T13:25:19.974Z,14.61
2023-01-02T13:27:48.771Z,14.56
2023-01-02T13:30:33.301Z,14.54
2023-01-02T13:33:01.919Z,14.54
2023-01-02T13:35:36.679Z,14.56
2023-01-02T13:38:07.368Z,14.57
2023-01-02T13:40:34.845Z,14.56
2023-01-02T13:43:06.064Z,14.59
2023-01-02T13:45:43.041Z,14.63
2023-01-02T13:48:40.216Z,14.63
2023-01-02T13:51:13.051Z,14.60
2023-01-02T13:53:47.933Z,14.56
2023-01-02T13:56:20.603Z,14.55
2023-01-02T13:58:56.370Z,14.56
2023-01-02T14:01:25.979Z,14.58
2023-01-02T14:04:08.060Z,14.57
2023-01-02T14:06:37.450Z,14.59
2023-01-02T14:09:03.914Z,14.57
2023-01-02T14:11:56.446Z,14.57
2023-01-02T14:14:35.754Z,14.58
2023-01-02T14:17:18.328Z,14.57
2023-01-02T14:19:45.336Z,14.58
2023-01-02T14:22:15.818Z,14.54
2023-01-02T14:24:51.789Z,14.52
2023-01-02T14:27:33.200Z,14.51
2023-01-02T14:30:05.367Z,14.53
2023-01-02T14:32:34.932Z,14.52
2023-01-02T14:35:05.656Z,14.52
2023-01-02T14:37:42.326Z,14.53
2023-01-02T14:40:34.910Z,14.52
2023-01-02T14:43:27.868Z,14.51
2023-01-02T14:46:23.149Z,14.47
2023-01-02T14:49:01.298Z,14.49
2023-01-02T14:51:48.896Z,14.45
2023-01-02T14:54:17.930Z,14.43
2023-01-02T14:56:50.855Z,14.43
2023-01-02T14:59:31.963Z,14.44
2023-01-02T15:02:04.876Z,14.45
2023-01-02T15:04:39.032Z,14.44
2023-01-02T15:07:16.953Z,14.43
2023-01-02T15:09:51.766Z,14.41
2023-01-02T15:12:45.283Z,14.39
2023-01-02T15:15:14.058Z,14.38
2023-01-02T15:17:41.080Z,14.34
2023-01-02T15:20:08.777Z,14.32
2023-01-02T15:22:37.642Z,14.32
2023-01-02T15:25:04.746Z,14.30
2023-01-02T15:27:33.762Z,14.26
2023-01-02T15:30:05.488Z,14.27
2023-01-02T15:32:33.492Z,14.27
2023-01-02T15:35:36.228Z,14.27
2023-01-02T15:38:05.272Z,14.29
2023-01-02T15:40:35.401Z,14.24
2023-01-02T15:43:31.080Z,14.23
2023-01-02T15:45:58.335Z,14.25
2023-01-02T15:48:30.111Z,14.21
2023-01-02T15:50:58.894Z,14.19
2023-01-02T15:53:40.143Z,14.17
2023-01-02T15:56:12.016Z,14.14
2023-01-02T15:58:48.327Z,14.13
2023-01-02T16:01:22.218Z,14.11
2023-01-02T16:04:02.182Z,14.09
2023-01-02T16:06:31.673Z,14.05
2023-01-02T16:09:00.570Z,13.99
2023-01-02T16:11:27.840Z,13.98
2023-01-02T16:14:27.377Z,13.91
2023-01-02T16:17:11.304Z,13.87
2023-01-02T16:19:45.167Z,13.85
2023-01-02T16:22:11.802Z,13.80
2023-01-02T16:24:49.970Z,13.75
2023-01-02T16:27:25.602Z,13.73
2023-01-02T16:29:53.700Z,13.72
2023-01-02T16:32:30.451Z,13.68
2023-01-02T16:35:28.514Z,13.64
2023-01-02T16:37:58.142Z,13.64
2023-01-02T16:41:00.645Z,13.60
2023-01-02T16:43:12.071Z,13.57
2023-01-02T16:45:39.313Z,13.53
2023-01-02T16:48:08.321Z,13.51
2023-01-02T16:50:41.082Z,13.47
2023-01-02T16:53:08.273Z,13.44
2023-01-02T16:55:34.963Z,13.44
2023-01-02T16:58:02.824Z,13.40
2023-01-02T17:00:29.690Z,13.38
2023-01-02T17:02:56.364Z,13.38
2023-01-02T17:05:34.430Z,13.37
2023-01-02T17:08:00.963Z,13.38
2023-01-02T17:10:28.817Z,13.38
2023-01-02T17:12:55.425Z,13.40
2023-01-02T17:15:21.954Z,13.37
2023-01-02T17:17:51.176Z,13.36
2023-01-02T17:20:18.579Z,13.33
2023-01-02T17:22:45.155Z,13.31
2023-01-02T17:25:15.929Z,13.31
2023-01-02T17:27:43.214Z,13.33
2023-01-02T17:30:12.890Z,13.30
2023-01-02T17:32:41.235Z,13.33
2023-01-02T17:35:10.940Z,13.33
2023-01-02T17:37:41.038Z,13.32
2023-01-02T17:40:10.181Z,13.30
2023-01-02T17:42:37.133Z,13.29
2023-01-02T17:45:04.158Z,13.27
2023-01-02T17:47:58.836Z,13.27
2023-01-02T17:50:17.432Z,13.29
2023-01-02T17:52:43.946Z,13.29
2023-01-02T17:55:10.583Z,13.29
2023-01-02T17:57:39.056Z,13.27
2023-01-02T18:00:09.123Z,13.24
2023-01-02T18:02:39.453Z,13.23
2023-01-02T18:05:07.212Z,13.19
2023-01-02T18:07:33.814Z,13.19
2023-01-02T18:10:09.244Z,13.18
2023-01-02T18:12:38.417Z,13.17
2023-01-02T18:15:13.808Z,13.15
2023-01-02T18:17:40.265Z,13.17
2023-01-02T18:20:11.762Z,13.16
2023-01-02T18:22:43.995Z,13.12
2023-01-02T18:25:24.417Z,13.07
2023-01-02T18:27:51.808Z,13.05
2023-01-02T18:30:22.335Z,13.05
2023-01-02T18:32:52.179Z,13.06
2023-01-02T18:38:38.070Z,13.05
2023-01-02T18:41:27.710Z,13.04
2023-01-02T18:44:07.025Z,13.03
2023-01-02T18:47:02.151Z,13.03
2023-01-02T18:49:25.120Z,13.01
2023-01-02T18:52:06.620Z,12.98
2023-01-02T18:54:34.266Z,12.97
2023-01-02T18:57:15.558Z,12.96
2023-01-02T18:59:50.385Z,12.94
2023-01-02T19:02:30.966Z,12.94
2023-01-02T19:05:01.235Z,12.93
2023-01-02T19:07:27.712Z,12.92
2023-01-02T19:10:07.793Z,12.89
2023-01-02T19:13:04.635Z,12.88
2023-01-02T19:15:50.927Z,12.86
2023-01-02T19:18:36.381Z,12.86
2023-01-02T19:21:08.896Z,12.88
2023-01-02T19:24:00.214Z,12.87
2023-01-02T19:26:34.240Z,12.87
2023-01-02T19:29:09.964Z,12.85
2023-01-02T19:32:02.628Z,12.82
2023-01-02T19:34:44.019Z,12.81
2023-01-02T19:37:10.508Z,12.81
2023-01-02T19:39:42.350Z,12.78
2023-01-02T19:42:21.894Z,12.77
2023-01-02T19:44:51.299Z,12.76
2023-01-02T19:47:20.021Z,12.75
2023-01-02T19:49:46.875Z,12.75
2023-01-02T19:52:15.804Z,12.75
2023-01-02T19:54:43.001Z,12.73
2023-01-02T19:57:11.104Z,12.70
2023-01-02T19:59:43.519Z,12.69
2023-01-02T20:02:10.707Z,12.67
2023-01-02T20:04:37.650Z,12.64
2023-01-02T20:07:04.263Z,12.60
2023-01-02T20:09:31.883Z,12.57
2023-01-02T20:12:17.078Z,12.54
2023-01-02T20:14:44.100Z,12.49
2023-01-02T20:17:11.202Z,12.44
2023-01-02T20:19:38.083Z,12.40
2023-01-02T20:22:05.598Z,12.35
2023-01-02T20:24:32.402Z,12.31
2023-01-02T20:27:00.723Z,12.25
2023-01-02T20:29:28.053Z,12.21
2023-01-02T20:31:55.172Z,12.15
2023-01-02T20:34:21.766Z,12.12
2023-01-02T20:36:48.743Z,12.07
2023-01-02T20:39:16.279Z,12.05
2023-01-02T20:41:43.239Z,11.97
2023-01-02T20:44:12.145Z,11.92
2023-01-02T20:46:39.506Z,11.89
2023-01-02T20:49:06.909Z,11.86
2023-01-02T20:51:35.336Z,11.84
2023-01-02T20:54:03.610Z,11.85
2023-01-02T20:56:30.958Z,11.83
2023-01-02T20:58:57.719Z,11.85
2023-01-02T21:01:24.934Z,11.80
2023-01-02T21:03:51.831Z,11.75
2023-01-02T21:06:18.556Z,11.68
2023-01-02T21:08:45.161Z,11.62
2023-01-02T21:11:11.745Z,11.58
2023-01-02T21:13:38.298Z,11.51
2023-01-02T21:16:05.110Z,11.48
2023-01-02T21:18:38.850Z,11.41
2023-01-02T21:21:11.410Z,11.37
2023-01-02T21:23:39.780Z,11.33
2023-01-02T21:26:09.043Z,11.33
2023-01-02T21:28:36.434Z,11.34
2023-01-02T21:31:03.278Z,11.36
2023-01-02T21:33:30.332Z,11.36
2023-01-02T21:36:01.251Z,11.36
2023-01-02T21:38:28.902Z,11.37
2023-01-02T21:41:16.953Z,11.40
2023-01-02T21:43:43.550Z,11.44
2023-01-02T21:46:10.262Z,11.46
2023-01-02T21:48:38.123Z,11.48
2023-01-02T21:51:05.716Z,11.50
2023-01-02T21:53:32.314Z,11.54
2023-01-02T21:55:59.520Z,11.58
2023-01-02T21:58:26.243Z,11.63
2023-01-02T22:00:52.815Z,11.69
2023-01-02T22:03:19.457Z,11.75
2023-01-02T22:05:46.059Z,11.81
2023-01-02T22:08:12.678Z,11.88
2023-01-02T22:10:39.295Z,11.92
2023-01-02T22:13:06.030Z,11.99
2023-01-02T22:15:32.693Z,12.04
2023-01-02T22:17:59.204Z,12.06
2023-01-02T22:20:25.867Z,12.07
2023-01-02T22:22:52.473Z,12.08
2023-01-02T22:25:19.064Z,12.07
2023-01-02T22:27:45.600Z,12.07
2023-01-02T22:30:24.833Z,12.09
2023-01-02T22:32:57.871Z,12.13
2023-01-02T22:35:24.416Z,12.13
2023-01-02T22:37:50.994Z,12.12
2023-01-02T22:40:17.808Z,12.14
2023-01-02T22:43:05.264Z,12.14
2023-01-02T22:45:52.785Z,12.16
2023-01-02T22:48:26.070Z,12.16
2023-01-02T22:50:55.490Z,12.14
2023-01-02T22:53:38.799Z,12.11
2023-01-02T22:56:15.996Z,12.09
2023-01-02T22:58:42.963Z,12.06
2023-01-02T23:01:30.632Z,12.04
2023-01-02T23:03:58.011Z,12.02
2023-01-02T23:06:25.359Z,12.01
2023-01-02T23:08:52.677Z,12.00
2023-01-02T23:11:20.502Z,11.98
2023-01-02T23:13:52.949Z,11.98
2023-01-02T23:16:41.510Z,11.98
2023-01-02T23:19:18.891Z,11.99
2023-01-02T23:21:57.231Z,11.98
2023-01-02T23:24:27.763Z,11.98
2023-01-02T23:26:57.159Z,12.01
2023-01-02T23:29:25.031Z,12.04
2023-01-02T23:31:52.494Z,12.05
2023-01-02T23:34:24.259Z,12.05
2023-01-02T23:36:52.385Z,12.05
2023-01-02T23:39:24.523Z,12.06
2023-01-02T23:41:52.237Z,12.05
2023-01-02T23:44:20.239Z,12.06
2023-01-02T23:46:47.268Z,12.07
2023-01-02T23:49:16.072Z,12.06
2023-01-02T23:51:43.838Z,12.07
2023-01-02T23:54:12.428Z,12.05
2023-01-02T23:56:40.683Z,12.04
2023-01-02T23:59:17.331Z,12.06
